Time;durP1;ratioP1;P1;durP2;ratioP2;P2;SDS_P1;SDS_P2;PMS_P1;PMS_P2;Temp;Humidity;BMP_temperature;BMP_pressure;BME280_temperature;BME280_humidity;BME280_pressure;Samples;Min_cycle;Max_cycle;Signal;HPM_P1;HPM_P2
2021/04/02 00:00:23;;;;;;;;;;;;;;;9.62;52.51;101779.38;5013312;28;96764;-78
2021/04/02 00:02:50;;;;;;;;;;;;;;;9.55;52.82;101783.88;5022045;28;99274;-79
2021/04/02 00:05:16;;;;;;;;;;;;;;;9.26;53.46;101780.78;5031723;28;98793;-78
2021/04/02 00:07:42;;;;;;;;;;;;;;;9.01;54.17;101785.50;5032341;28;97154;-79
2021/04/02 00:10:10;;;;;;;;;;;;;;;9.27;53.55;101784.28;5032964;28;97267;-79
2021/04/02 00:12:37;;;;;;;;;;;;;;;9.54;52.98;101775.97;5033006;28;99167;-78
2021/04/02 00:15:06;;;;;;;;;;;;;;;9.31;53.04;101789.53;5029715;28;98596;-78
2021/04/02 00:17:32;;;;;;;;;;;;;;;9.17;53.57;101779.16;5032055;27;96831;-78
2021/04/02 00:19:59;;;;;;;;;;;;;;;9.08;53.29;101784.53;5035395;28;97178;-78
2021/04/02 00:22:24;;;;;;;;;;;;;;;8.93;54.25;101771.53;5024244;27;99226;-79
2021/04/02 00:24:50;;;;;;;;;;;;;;;8.99;54.06;101789.91;5028016;28;98678;-79
2021/04/02 00:27:16;;;;;;;;;;;;;;;9.06;53.48;101788.94;5033424;27;98461;-78
2021/04/02 00:29:42;;;;;;;;;;;;;;;9.11;53.63;101786.28;5035840;27;96838;-79
2021/04/02 00:32:08;;;;;;;;;;;;;;;8.68;54.34;101791.16;5027561;27;99187;-79
2021/04/02 00:34:34;;;;;;;;;;;;;;;9.30;52.83;101786.91;5027118;27;98825;-79
2021/04/02 00:37:01;;;;;;;;;;;;;;;9.50;51.58;101790.13;5032649;27;97106;-79
2021/04/02 00:39:26;;;;;;;;;;;;;;;9.19;51.73;101792.28;5025179;27;96979;-77
2021/04/02 00:41:54;;;;;;;;;;;;;;;8.89;52.75;101790.94;5030341;27;99142;-79
2021/04/02 00:44:19;;;;;;;;;;;;;;;9.21;51.46;101798.44;5035828;28;98801;-79
2021/04/02 00:46:45;;;;;;;;;;;;;;;9.03;53.04;101799.56;5028199;28;99159;-79
2021/04/02 00:49:11;;;;;;;;;;;;;;;9.28;52.12;101799.22;5030458;28;96865;-79
2021/04/02 00:51:37;;;;;;;;;;;;;;;9.24;52.49;101802.81;5027756;27;99413;-79
2021/04/02 00:54:04;;;;;;;;;;;;;;;9.28;52.54;101807.13;5037724;27;99259;-79
2021/04/02 00:56:31;;;;;;;;;;;;;;;8.92;52.96;101806.72;5028744;27;96980;-79
2021/04/02 00:58:57;;;;;;;;;;;;;;;8.76;53.60;101815.69;5025422;27;96823;-79
2021/04/02 01:01:30;;;;;;;;;;;;;;;8.88;53.77;101810.25;5034388;28;99174;-79
2021/04/02 01:03:56;;;;;;;;;;;;;;;8.81;53.57;101811.22;5036122;27;96750;-79
2021/04/02 01:06:23;;;;;;;;;;;;;;;8.91;53.03;101814.66;5023684;27;96659;-78
2021/04/02 01:08:49;;;;;;;;;;;;;;;8.78;53.61;101811.28;5031365;28;96780;-79
2021/04/02 01:11:18;;;;;;;;;;;;;;;9.12;52.31;101804.69;5030413;28;99130;-79
2021/04/02 01:13:46;;;;;;;;;;;;;;;9.14;52.08;101808.19;5034191;28;98883;-79
2021/04/02 01:16:12;;;;;;;;;;;;;;;8.73;52.91;101810.44;5035986;28;96641;-79
2021/04/02 01:18:42;;;;;;;;;;;;;;;8.99;52.52;101810.16;5035414;27;96917;-78
2021/04/02 01:21:22;;;;;;;;;;;;;;;8.78;52.71;101806.00;5017743;28;98971;-78
2021/04/02 01:24:00;;;;;;;;;;;;;;;8.98;52.26;101803.13;5019370;27;97668;-79
2021/04/02 01:26:32;;;;;;;;;;;;;;;9.34;51.28;101810.56;5026232;28;96872;-78
2021/04/02 01:29:07;;;;;;;;;;;;;;;8.98;52.03;101808.41;5030676;27;96867;-79
2021/04/02 01:31:33;;;;;;;;;;;;;;;8.63;52.36;101814.06;5027883;28;98948;-80
2021/04/02 01:34:00;;;;;;;;;;;;;;;8.49;52.62;101816.84;5035717;27;97899;-79
2021/04/02 01:36:27;;;;;;;;;;;;;;;9.44;50.44;101806.91;5036182;28;96820;-79
2021/04/02 01:38:53;;;;;;;;;;;;;;;9.15;50.93;101817.84;5035789;28;97223;-79
2021/04/02 01:41:21;;;;;;;;;;;;;;;8.99;51.52;101813.63;5022503;28;98977;-78
2021/04/02 01:43:49;;;;;;;;;;;;;;;9.60;49.63;101818.97;5028072;28;98895;-78
2021/04/02 01:46:17;;;;;;;;;;;;;;;9.50;49.60;101813.88;5032097;27;97434;-79
2021/04/02 01:48:44;;;;;;;;;;;;;;;9.44;50.16;101816.59;5036892;27;97245;-79
2021/04/02 01:51:11;;;;;;;;;;;;;;;9.43;50.43;101804.28;5022130;27;98888;-79
2021/04/02 01:53:39;;;;;;;;;;;;;;;9.34;50.84;101814.97;5035266;27;97887;-79
2021/04/02 01:56:07;;;;;;;;;;;;;;;9.61;50.28;101806.66;5035146;28;97380;-78
2021/04/02 01:58:33;;;;;;;;;;;;;;;9.12;51.85;101809.13;5037707;27;97389;-78
2021/04/02 02:01:00;;;;;;;;;;;;;;;8.99;51.92;101813.63;5030994;28;99380;-80
2021/04/02 02:03:28;;;;;;;;;;;;;;;8.79;52.92;101821.78;5025195;27;98912;-79
2021/04/02 02:05:54;;;;;;;;;;;;;;;8.62;53.59;101823.72;5027115;28;96743;-78
2021/04/02 02:08:21;;;;;;;;;;;;;;;8.20;54.39;101827.63;5035668;28;96971;-79
2021/04/02 02:10:49;;;;;;;;;;;;;;;8.43;53.82;101826.56;5033124;27;98160;-80
2021/04/02 02:13:15;;;;;;;;;;;;;;;7.77;55.61;101834.09;5031416;28;98875;-80
2021/04/02 02:15:41;;;;;;;;;;;;;;;7.71;55.91;101829.75;5026561;27;97452;-80
2021/04/02 02:18:09;;;;;;;;;;;;;;;8.34;54.44;101824.88;5035034;28;96735;-78
2021/04/02 02:20:39;;;;;;;;;;;;;;;8.24;54.05;101829.34;5034160;28;99029;-78
2021/04/02 02:23:05;;;;;;;;;;;;;;;7.97;54.90;101832.19;5032495;28;98944;-79
2021/04/02 02:25:31;;;;;;;;;;;;;;;7.77;55.53;101834.09;5034134;28;96653;-80
2021/04/02 02:27:57;;;;;;;;;;;;;;;7.91;55.19;101825.22;5032471;28;96947;-78
2021/04/02 02:30:25;;;;;;;;;;;;;;;7.95;55.03;101828.69;5027377;27;98835;-79
2021/04/02 02:32:50;;;;;;;;;;;;;;;7.90;55.05;101825.22;5025041;28;99184;-79
2021/04/02 02:35:16;;;;;;;;;;;;;;;8.22;54.10;101828.47;5033938;27;97222;-79
2021/04/02 02:37:44;;;;;;;;;;;;;;;7.74;54.93;101834.13;5024483;27;96740;-79
2021/04/02 02:40:11;;;;;;;;;;;;;;;7.73;55.53;101838.50;5017145;28;99002;-78
2021/04/02 02:42:37;;;;;;;;;;;;;;;7.99;54.40;101825.16;5031874;27;98829;-80
2021/04/02 02:45:04;;;;;;;;;;;;;;;8.16;53.65;101839.06;5033260;27;97215;-79
2021/04/02 02:47:30;;;;;;;;;;;;;;;7.80;54.57;101824.44;5025378;27;96862;-79
2021/04/02 02:49:57;;;;;;;;;;;;;;;7.51;55.35;101832.50;5024751;27;102062;-79
2021/04/02 02:52:24;;;;;;;;;;;;;;;7.45;55.70;101834.28;5029601;27;98881;-79
2021/04/02 02:54:51;;;;;;;;;;;;;;;7.52;55.88;101838.63;5030295;27;97291;-77
2021/04/02 02:57:17;;;;;;;;;;;;;;;7.79;54.76;101837.59;5023509;27;96823;-79
2021/04/02 02:59:44;;;;;;;;;;;;;;;7.96;54.33;101839.22;5016143;28;99495;-79
2021/04/02 03:02:10;;;;;;;;;;;;;;;7.57;55.41;101834.22;5032933;27;99603;-79
2021/04/02 03:04:36;;;;;;;;;;;;;;;7.02;57.10;101841.50;5038696;28;96725;-79
2021/04/02 03:07:03;;;;;;;;;;;;;;;7.79;55.27;101832.34;5027545;28;96970;-79
2021/04/02 03:09:30;;;;;;;;;;;;;;;8.23;53.63;101832.84;5019257;27;99315;-79
2021/04/02 03:11:57;;;;;;;;;;;;;;;8.05;53.92;101824.25;5033994;28;98053;-79
2021/04/02 03:14:24;;;;;;;;;;;;;;;7.20;56.47;101825.66;5034458;27;97053;-79
2021/04/02 03:16:51;;;;;;;;;;;;;;;7.21;56.46;101835.28;5033394;28;96788;-78
2021/04/02 03:19:19;;;;;;;;;;;;;;;6.88;57.02;101830.16;5027507;27;98941;-79
2021/04/02 03:21:45;;;;;;;;;;;;;;;7.01;57.44;101830.13;5018263;27;97713;-78
2021/04/02 03:24:11;;;;;;;;;;;;;;;7.04;57.58;101826.59;5031947;27;96905;-80
2021/04/02 03:26:37;;;;;;;;;;;;;;;6.84;57.92;101831.03;5021193;28;96847;-80
2021/04/02 03:29:05;;;;;;;;;;;;;;;8.14;54.55;101818.91;5021303;28;99090;-78
2021/04/02 03:31:34;;;;;;;;;;;;;;;8.97;51.51;101814.56;5019347;28;100398;-79
2021/04/02 03:34:00;;;;;;;;;;;;;;;9.04;51.02;101809.22;5032818;27;96980;-79
2021/04/02 03:36:27;;;;;;;;;;;;;;;8.69;51.51;101800.81;5019384;28;97097;-79
2021/04/02 03:38:55;;;;;;;;;;;;;;;8.97;50.84;101797.00;5028080;28;99141;-79
2021/04/02 03:41:23;;;;;;;;;;;;;;;8.34;52.32;101802.06;5018913;27;98820;-80
2021/04/02 03:43:50;;;;;;;;;;;;;;;8.61;51.69;101793.00;5031109;27;96901;-79
2021/04/02 03:46:18;;;;;;;;;;;;;;;8.31;52.51;101802.09;5031074;28;97075;-78
2021/04/02 03:48:44;;;;;;;;;;;;;;;8.28;52.97;101807.34;5013816;28;96835;-79
2021/04/02 03:51:14;;;;;;;;;;;;;;;7.71;54.40;101805.19;5025385;27;99307;-80
2021/04/02 03:53:41;;;;;;;;;;;;;;;8.11;53.78;101811.03;5028897;27;96857;-78
2021/04/02 03:56:09;;;;;;;;;;;;;;;8.42;52.55;101801.09;5019013;28;96769;-79
2021/04/02 03:58:36;;;;;;;;;;;;;;;8.84;51.59;101807.69;5027400;28;99281;-81
2021/04/02 04:01:07;;;;;;;;;;;;;;;9.13;50.38;101803.81;5017933;28;98828;-79
2021/04/02 04:03:34;;;;;;;;;;;;;;;8.57;51.38;101801.84;5029829;27;97364;-79
2021/04/02 04:06:00;;;;;;;;;;;;;;;8.91;50.57;101794.44;5022368;28;96595;-78
2021/04/02 04:08:26;;;;;;;;;;;;;;;8.83;51.13;101792.75;5027253;28;99166;-78
2021/04/02 04:10:53;;;;;;;;;;;;;;;8.62;51.42;101793.88;5015959;28;99175;-78
2021/04/02 04:13:19;;;;;;;;;;;;;;;8.27;52.93;101795.06;5030840;27;96840;-79
2021/04/02 04:15:47;;;;;;;;;;;;;;;7.68;54.71;101797.34;5024915;27;97382;-78
2021/04/02 04:18:14;;;;;;;;;;;;;;;8.24;53.45;101792.47;5028952;28;98834;-78
2021/04/02 04:20:41;;;;;;;;;;;;;;;8.73;52.19;101792.84;5032098;28;99212;-79
2021/04/02 04:23:07;;;;;;;;;;;;;;;8.19;53.26;101788.16;5032985;27;96776;-78
2021/04/02 04:25:34;;;;;;;;;;;;;;;8.06;53.68;101790.00;5018386;27;97188;-79
2021/04/02 04:28:00;;;;;;;;;;;;;;;8.26;53.50;101787.19;5022934;28;98765;-79
2021/04/02 04:30:27;;;;;;;;;;;;;;;8.23;53.31;101777.56;5016337;28;99071;-78
2021/04/02 04:32:55;;;;;;;;;;;;;;;7.98;54.25;101786.56;5026564;27;97642;-79
2021/04/02 04:35:21;;;;;;;;;;;;;;;8.00;54.30;101790.06;5017622;27;96832;-78
2021/04/02 04:37:49;;;;;;;;;;;;;;;8.25;53.80;101794.22;5029931;27;100700;-79
2021/04/02 04:40:17;;;;;;;;;;;;;;;8.53;52.71;101799.25;5024162;28;99172;-80
2021/04/02 04:42:44;;;;;;;;;;;;;;;8.64;52.29;101789.47;5026783;27;97277;-80
2021/04/02 04:45:11;;;;;;;;;;;;;;;8.83;51.80;101787.50;5031174;28;96892;-78
2021/04/02 04:47:38;;;;;;;;;;;;;;;8.73;52.11;101797.25;5018311;27;99377;-79
2021/04/02 04:50:05;;;;;;;;;;;;;;;9.01;51.48;101780.22;5018876;28;98759;-79
2021/04/02 04:52:32;;;;;;;;;;;;;;;9.08;51.60;101781.03;5034002;27;98691;-79
2021/04/02 04:55:00;;;;;;;;;;;;;;;9.00;51.66;101778.47;5031632;28;97235;-79
2021/04/02 04:57:29;;;;;;;;;;;;;;;8.11;54.29;101782.06;5022684;27;99193;-78
2021/04/02 04:59:57;;;;;;;;;;;;;;;7.88;54.89;101790.13;5022554;28;98882;-81
2021/04/02 05:02:26;;;;;;;;;;;;;;;8.41;53.53;101787.06;5037529;28;97363;-79
2021/04/02 05:04:52;;;;;;;;;;;;;;;8.27;54.14;101794.22;5041021;28;97258;-79
2021/04/02 05:07:19;;;;;;;;;;;;;;;8.72;52.96;101799.03;5023611;27;98951;-79
2021/04/02 05:09:45;;;;;;;;;;;;;;;8.48;53.61;101811.59;5036748;28;99545;-79
2021/04/02 05:12:14;;;;;;;;;;;;;;;8.28;54.13;101806.47;5029184;27;96753;-79
2021/04/02 05:14:41;;;;;;;;;;;;;;;8.01;55.21;101813.72;5040451;28;96878;-79
2021/04/02 05:17:09;;;;;;;;;;;;;;;8.76;52.85;101819.19;5040477;28;98857;-80
2021/04/02 05:19:36;;;;;;;;;;;;;;;8.89;52.22;101817.28;5039227;27;99186;-79
2021/04/02 05:22:02;;;;;;;;;;;;;;;9.36;51.06;101814.06;5035167;27;96747;-79
2021/04/02 05:24:27;;;;;;;;;;;;;;;9.88;49.72;101816.81;5032122;27;98307;-78
2021/04/02 05:26:54;;;;;;;;;;;;;;;10.15;48.79;101819.91;5033184;27;98939;-78
2021/04/02 05:29:20;;;;;;;;;;;;;;;9.82;49.23;101808.13;5036407;27;98902;-79
2021/04/02 05:31:46;;;;;;;;;;;;;;;8.50;53.03;101815.97;5029602;27;96892;-79
2021/04/02 05:34:12;;;;;;;;;;;;;;;7.72;55.80;101812.22;5022354;27;96900;-79
2021/04/02 05:36:38;;;;;;;;;;;;;;;8.13;55.21;101815.41;5031270;27;98923;-79
2021/04/02 05:39:04;;;;;;;;;;;;;;;8.00;55.36;101824.28;5026335;27;98795;-78
2021/04/02 05:41:32;;;;;;;;;;;;;;;7.96;55.78;101819.91;5033025;27;96913;-79
2021/04/02 05:44:01;;;;;;;;;;;;;;;8.07;55.79;101833.00;5034892;27;97164;-79
2021/04/02 05:46:29;;;;;;;;;;;;;;;9.13;53.14;101827.53;5031541;27;98915;-79
2021/04/02 05:48:59;;;;;;;;;;;;;;;8.45;54.12;101819.53;5023007;27;98858;-80
2021/04/02 05:51:26;;;;;;;;;;;;;;;8.23;55.18;101824.97;5031196;27;96951;-78
2021/04/02 05:53:52;;;;;;;;;;;;;;;6.63;60.18;101838.09;5042871;27;96947;-79
2021/04/02 05:56:18;;;;;;;;;;;;;;;6.85;60.49;101840.66;5036226;27;98988;-79
2021/04/02 05:58:45;;;;;;;;;;;;;;;6.80;61.08;101846.81;5026230;27;97717;-80
2021/04/02 06:01:11;;;;;;;;;;;;;;;6.92;60.28;101840.66;5033410;27;98793;-79
2021/04/02 06:03:38;;;;;;;;;;;;;;;7.17;59.81;101841.44;5031663;27;97296;-79
2021/04/02 06:06:04;;;;;;;;;;;;;;;6.95;60.56;101842.41;5028568;27;98140;-79
2021/04/02 06:08:30;;;;;;;;;;;;;;;7.14;60.26;101844.09;5021313;27;98919;-79
2021/04/02 06:10:56;;;;;;;;;;;;;;;7.58;58.27;101839.47;5034977;27;96887;-78
2021/04/02 06:13:22;;;;;;;;;;;;;;;8.36;56.10;101825.75;5041166;27;96726;-77
2021/04/02 06:15:48;;;;;;;;;;;;;;;8.78;54.78;101827.09;5025114;27;99265;-79
2021/04/02 06:18:14;;;;;;;;;;;;;;;8.96;53.46;101826.88;5036178;27;98752;-77
2021/04/02 06:20:41;;;;;;;;;;;;;;;9.43;52.90;101822.75;5034157;27;96846;-78
2021/04/02 06:23:08;;;;;;;;;;;;;;;9.18;53.06;101823.09;5024426;27;97613;-78
2021/04/02 06:25:35;;;;;;;;;;;;;;;8.32;55.32;101821.41;5017301;27;99132;-79
2021/04/02 06:28:00;;;;;;;;;;;;;;;8.32;55.17;101816.16;5028139;27;97674;-78
2021/04/02 06:30:27;;;;;;;;;;;;;;;8.65;54.79;101807.03;5036124;27;98260;-79
2021/04/02 06:32:53;;;;;;;;;;;;;;;7.89;57.08;101808.56;5024422;27;97249;-78
2021/04/02 06:35:19;;;;;;;;;;;;;;;8.25;56.24;101799.50;5029234;27;99004;-79
2021/04/02 06:37:50;;;;;;;;;;;;;;;8.77;55.29;101799.00;5029194;27;98875;-78
2021/04/02 06:40:17;;;;;;;;;;;;;;;9.75;52.40;101793.25;5015656;27;96893;-78
2021/04/02 06:42:43;;;;;;;;;;;;;;;9.47;52.44;101784.88;5027907;27;97438;-79
2021/04/02 06:45:10;;;;;;;;;;;;;;;10.02;51.90;101789.31;5019496;27;98886;-77
2021/04/02 06:47:36;;;;;;;;;;;;;;;9.53;52.73;101803.25;5027223;27;98914;-78
2021/04/02 06:50:13;;;;;;;;;;;;;;;9.82;52.61;101809.00;5023873;27;97279;-78
2021/04/02 06:52:39;;;;;;;;;;;;;;;9.02;54.14;101812.75;5033190;27;96784;-79
2021/04/02 06:55:07;;;;;;;;;;;;;;;9.91;52.24;101814.09;5031258;27;101576;-78
2021/04/02 06:57:34;;;;;;;;;;;;;;;10.06;51.05;101817.41;5032924;27;99333;-78
2021/04/02 06:59:59;;;;;;;;;;;;;;;8.89;54.45;101822.56;5013148;28;97249;-78
2021/04/02 07:02:27;;;;;;;;;;;;;;;8.98;54.50;101822.47;5026526;27;97286;-79
2021/04/02 07:04:54;;;;;;;;;;;;;;;8.68;55.77;101828.94;5025947;28;99572;-78
2021/04/02 07:07:20;;;;;;;;;;;;;;;8.47;56.55;101830.94;5025769;28;101112;-77
2021/04/02 07:09:46;;;;;;;;;;;;;;;8.30;56.83;101828.41;5030198;27;96864;-79
2021/04/02 07:12:13;;;;;;;;;;;;;;;8.20;57.33;101827.63;5032542;27;96811;-77
2021/04/02 07:14:40;;;;;;;;;;;;;;;8.41;57.04;101831.84;5032101;28;97775;-80
2021/04/02 07:17:06;;;;;;;;;;;;;;;8.71;55.99;101822.78;5037128;28;98832;-78
2021/04/02 07:19:33;;;;;;;;;;;;;;;8.44;56.42;101830.94;5031993;28;96817;-78
2021/04/02 07:21:59;;;;;;;;;;;;;;;8.55;56.28;101835.22;5025002;27;96794;-79
2021/04/02 07:24:25;;;;;;;;;;;;;;;8.67;56.14;101837.72;5029421;27;99200;-78
2021/04/02 07:26:51;;;;;;;;;;;;;;;9.11;54.86;101839.88;5040260;27;99101;-79
2021/04/02 07:29:23;;;;;;;;;;;;;;;9.23;54.08;101830.06;5032464;27;98506;-79
2021/04/02 07:31:49;;;;;;;;;;;;;;;9.04;54.85;101821.50;5032426;27;97694;-80
2021/04/02 07:34:15;;;;;;;;;;;;;;;8.86;55.75;101825.22;5032249;28;98810;-78
2021/04/02 07:36:41;;;;;;;;;;;;;;;8.78;55.86;101825.34;5029895;28;98071;-80
2021/04/02 07:39:08;;;;;;;;;;;;;;;8.38;56.68;101821.34;5026917;28;96844;-79
2021/04/02 07:41:37;;;;;;;;;;;;;;;9.77;52.92;101815.25;5036998;27;96763;-80
2021/04/02 07:44:05;;;;;;;;;;;;;;;10.53;50.15;101820.13;5031443;27;97617;-79
2021/04/02 07:46:32;;;;;;;;;;;;;;;10.11;51.73;101819.06;5027996;27;98938;-81
2021/04/02 07:49:00;;;;;;;;;;;;;;;9.85;51.80;101827.41;5025580;27;98815;-79
2021/04/02 07:51:39;;;;;;;;;;;;;;;9.86;51.57;101823.88;5024626;28;97913;-79
2021/04/02 07:54:14;;;;;;;;;;;;;;;9.54;52.84;101823.47;5027450;28;99393;-79
2021/04/02 07:56:40;;;;;;;;;;;;;;;8.87;54.76;101824.34;5027096;28;97900;-79
2021/04/02 07:59:07;;;;;;;;;;;;;;;8.78;54.80;101827.97;5027229;27;96760;-80
2021/04/02 08:01:34;;;;;;;;;;;;;;;9.23;54.10;101827.44;5028991;27;98821;-79
2021/04/02 08:04:02;;;;;;;;;;;;;;;10.16;51.16;101826.94;5020465;27;98174;-81
2021/04/02 08:06:30;;;;;;;;;;;;;;;10.69;49.71;101821.59;5024486;27;99269;-80
2021/04/02 08:08:56;;;;;;;;;;;;;;;10.68;48.92;101835.72;5030200;27;97753;-79
2021/04/02 08:11:25;;;;;;;;;;;;;;;10.39;49.89;101828.31;5027826;28;96906;-81
2021/04/02 08:13:53;;;;;;;;;;;;;;;10.88;49.09;101837.09;5025991;27;98009;-81
2021/04/02 08:16:50;;;;;;;;;;;;;;;11.40;47.19;101836.91;5030261;27;102957;-81
2021/04/02 08:19:19;;;;;;;;;;;;;;;11.84;45.93;101835.94;5028255;28;96813;-82
2021/04/02 08:21:46;;;;;;;;;;;;;;;11.81;45.79;101823.66;5031383;28;96912;-81
2021/04/02 08:24:13;;;;;;;;;;;;;;;12.80;43.58;101822.88;5019383;27;99311;-81
2021/04/02 08:26:40;;;;;;;;;;;;;;;12.47;44.38;101822.84;5035915;27;99223;-82
2021/04/02 08:29:07;;;;;;;;;;;;;;;12.49;44.51;101817.53;5023297;27;96949;-80
2021/04/02 08:31:34;;;;;;;;;;;;;;;12.76;44.14;101822.09;5033727;27;97705;-80
2021/04/02 08:34:00;;;;;;;;;;;;;;;13.08;42.81;101819.41;5033519;27;98372;-81
2021/04/02 08:36:27;;;;;;;;;;;;;;;11.83;45.19;101813.00;5033458;27;99295;-81
2021/04/02 08:38:54;;;;;;;;;;;;;;;11.03;47.09;101805.91;5033443;27;97261;-81
2021/04/02 08:41:20;;;;;;;;;;;;;;;11.63;46.34;101809.91;5035797;27;97624;-81
2021/04/02 08:43:47;;;;;;;;;;;;;;;12.09;44.99;101809.72;5031199;27;98960;-81
2021/04/02 08:46:14;;;;;;;;;;;;;;;12.85;43.36;101805.06;5037122;28;99768;-80
2021/04/02 08:48:40;;;;;;;;;;;;;;;11.46;46.86;101811.19;5036626;27;96768;-82
2021/04/02 08:51:06;;;;;;;;;;;;;;;12.20;45.13;101811.22;5039539;28;96736;-82
2021/04/02 08:53:40;;;;;;;;;;;;;;;13.01;43.42;101793.06;5027966;27;98195;-82
2021/04/02 08:56:06;;;;;;;;;;;;;;;13.05;42.64;101797.41;5034670;27;99374;-80
2021/04/02 08:58:32;;;;;;;;;;;;;;;13.25;42.46;101788.88;5034165;27;96979;-80
2021/04/02 09:00:58;;;;;;;;;;;;;;;13.35;42.34;101785.03;5040250;27;97171;-80
2021/04/02 09:03:25;;;;;;;;;;;;;;;13.45;41.93;101774.09;5041207;27;98818;-83
2021/04/02 09:05:51;;;;;;;;;;;;;;;13.41;41.78;101774.22;5039075;27;96866;-81
2021/04/02 09:08:19;;;;;;;;;;;;;;;13.32;41.98;101774.50;5041914;27;97104;-84
2021/04/02 09:10:49;;;;;;;;;;;;;;;13.69;41.20;101777.75;5043041;27;96833;-83
2021/04/02 09:13:16;;;;;;;;;;;;;;;14.06;40.28;101774.75;5039116;27;100491;-82
2021/04/02 09:15:46;;;;;;;;;;;;;;;14.11;40.10;101772.78;5030224;27;97674;-83
2021/04/02 09:18:16;;;;;;;;;;;;;;;13.87;40.39;101771.84;5038742;27;96808;-81
2021/04/02 09:20:42;;;;;;;;;;;;;;;14.04;40.10;101759.78;5034957;27;96834;-80
2021/04/02 09:23:08;;;;;;;;;;;;;;;13.92;40.06;101763.69;5039806;28;99066;-82
2021/04/02 09:25:37;;;;;;;;;;;;;;;13.94;40.22;101752.13;5032321;27;99349;-80
2021/04/02 09:28:06;;;;;;;;;;;;;;;14.13;40.04;101746.16;5034625;27;97066;-81
2021/04/02 09:30:33;;;;;;;;;;;;;;;13.68;40.83;101740.59;5038877;27;96986;-83
2021/04/02 09:32:59;;;;;;;;;;;;;;;14.46;39.87;101755.66;5033444;27;97910;-82
2021/04/02 09:35:25;;;;;;;;;;;;;;;14.88;38.60;101755.03;5033138;28;97750;-81
2021/04/02 09:37:53;;;;;;;;;;;;;;;14.84;38.25;101756.03;5035289;27;97942;-83
2021/04/02 09:40:19;;;;;;;;;;;;;;;14.59;38.62;101754.28;5032017;27;97101;-83
2021/04/02 09:42:49;;;;;;;;;;;;;;;14.57;38.70;101744.66;5042230;27;99380;-82
2021/04/02 09:45:17;;;;;;;;;;;;;;;13.73;39.84;101750.16;5036856;27;99421;-82
2021/04/02 09:47:49;;;;;;;;;;;;;;;13.68;40.29;101740.59;5034550;27;96762;-81
2021/04/02 09:50:17;;;;;;;;;;;;;;;14.09;39.78;101734.78;5036855;27;96806;-83
2021/04/02 09:52:44;;;;;;;;;;;;;;;13.99;39.62;101720.06;5036687;27;99283;-82
2021/04/02 09:55:44;;;;;;;;;;;;;;;13.96;40.02;101720.19;5030268;27;98483;-83
2021/04/02 09:58:10;;;;;;;;;;;;;;;14.41;38.87;101716.84;5037884;28;96548;-83
2021/04/02 10:00:38;;;;;;;;;;;;;;;14.48;38.45;101719.25;5041298;27;97186;-83
2021/04/02 10:03:11;;;;;;;;;;;;;;;13.85;39.78;101717.00;5037535;28;98277;-81
2021/04/02 10:05:39;;;;;;;;;;;;;;;14.39;39.13;101711.59;5037519;27;98052;-82
2021/04/02 10:08:06;;;;;;;;;;;;;;;14.22;39.09;101700.66;5044116;28;96803;-82
2021/04/02 10:10:36;;;;;;;;;;;;;;;14.72;37.65;101709.50;5043885;27;98441;-81
2021/04/02 10:13:03;;;;;;;;;;;;;;;14.70;36.92;101698.91;5036448;28;99230;-81
2021/04/02 10:15:29;;;;;;;;;;;;;;;15.14;36.74;101683.91;5037208;28;98176;-82
2021/04/02 10:17:59;;;;;;;;;;;;;;;15.11;36.15;101686.66;5035646;27;96852;-82
2021/04/02 10:23:05;;;;;;;;;;;;;;;14.37;36.90;101689.50;5027013;28;101283;-81
2021/04/02 10:25:31;;;;;;;;;;;;;;;14.81;36.33;101684.34;5031163;28;101379;-81
2021/04/02 10:27:58;;;;;;;;;;;;;;;14.91;34.22;101670.59;5037710;27;97131;-80
2021/04/02 10:30:27;;;;;;;;;;;;;;;15.03;33.62;101664.81;5034680;28;97010;-83
2021/04/02 10:32:56;;;;;;;;;;;;;;;14.83;34.32;101677.19;5033748;28;99005;-81
2021/04/02 10:35:22;;;;;;;;;;;;;;;14.63;34.89;101673.47;5036850;28;97446;-81
2021/04/02 10:37:48;;;;;;;;;;;;;;;14.55;34.98;101672.03;5041131;27;97054;-81
2021/04/02 10:40:18;;;;;;;;;;;;;;;14.73;35.01;101672.19;5035267;27;96760;-82
2021/04/02 10:42:44;;;;;;;;;;;;;;;14.97;34.51;101670.38;5035951;28;98971;-80
2021/04/02 10:45:10;;;;;;;;;;;;;;;14.89;34.36;101660.97;5034594;28;99247;-82
2021/04/02 10:47:36;;;;;;;;;;;;;;;14.99;34.10;101665.88;5037570;28;96860;-82
2021/04/02 10:50:08;;;;;;;;;;;;;;;15.22;33.76;101654.31;5037142;27;96885;-81
2021/04/02 10:52:34;;;;;;;;;;;;;;;14.77;34.29;101650.81;5036821;27;100703;-80
2021/04/02 10:55:00;;;;;;;;;;;;;;;14.22;34.78;101652.81;5032858;27;100627;-81
2021/04/02 10:57:26;;;;;;;;;;;;;;;14.18;35.33;101651.19;5042330;27;96809;-81
2021/04/02 10:59:52;;;;;;;;;;;;;;;14.49;34.68;101641.22;5032256;27;97305;-82
2021/04/02 11:02:18;;;;;;;;;;;;;;;14.03;35.22;101643.78;5042980;27;99556;-82
2021/04/02 11:04:45;;;;;;;;;;;;;;;13.45;35.20;101638.69;5037198;27;98173;-81
2021/04/02 11:07:13;;;;;;;;;;;;;;;13.79;35.49;101633.06;5040925;27;97145;-82
2021/04/02 11:09:39;;;;;;;;;;;;;;;14.12;34.31;101630.13;5029778;27;96864;-80
2021/04/02 11:12:07;;;;;;;;;;;;;;;14.29;34.56;101618.00;5039149;28;98962;-81
2021/04/02 11:14:33;;;;;;;;;;;;;;;14.46;34.04;101614.72;5034741;27;99118;-81
2021/04/02 11:16:59;;;;;;;;;;;;;;;14.43;34.08;101608.66;5033010;27;96894;-82
2021/04/02 11:19:24;;;;;;;;;;;;;;;14.69;33.79;101605.88;5034861;27;96889;-81
2021/04/02 11:21:50;;;;;;;;;;;;;;;15.18;33.08;101594.13;5042204;27;99359;-81
2021/04/02 11:24:17;;;;;;;;;;;;;;;14.51;34.28;101595.91;5033807;27;98334;-81
2021/04/02 11:26:43;;;;;;;;;;;;;;;14.92;33.73;101587.19;5033374;28;97176;-81
2021/04/02 11:29:09;;;;;;;;;;;;;;;14.61;34.20;101592.00;5038132;27;96783;-80
2021/04/02 11:31:35;;;;;;;;;;;;;;;14.59;34.30;101584.06;5032905;28;99028;-81
2021/04/02 11:34:01;;;;;;;;;;;;;;;14.72;34.10;101574.69;5036939;28;99168;-81
2021/04/02 11:36:27;;;;;;;;;;;;;;;14.90;33.87;101577.56;5036055;27;96790;-81
2021/04/02 11:38:53;;;;;;;;;;;;;;;14.60;34.24;101582.28;5031435;27;96927;-81
2021/04/02 11:41:20;;;;;;;;;;;;;;;15.04;33.54;101580.50;5034324;28;98828;-81
2021/04/02 11:43:46;;;;;;;;;;;;;;;13.94;35.10;101565.25;5031513;28;99068;-82
2021/04/02 11:46:12;;;;;;;;;;;;;;;14.11;34.60;101565.47;5032047;28;96863;-81
2021/04/02 11:48:38;;;;;;;;;;;;;;;14.06;34.74;101562.13;5033055;28;96748;-81
2021/04/02 11:51:04;;;;;;;;;;;;;;;13.62;34.57;101562.88;5036290;28;97927;-81
2021/04/02 11:53:30;;;;;;;;;;;;;;;13.76;34.79;101558.81;5025489;28;99180;-80
2021/04/02 11:55:56;;;;;;;;;;;;;;;14.15;33.60;101550.31;5034764;28;96671;-81
2021/04/02 11:58:23;;;;;;;;;;;;;;;14.66;32.74;101558.97;5025349;28;96676;-81
2021/04/02 12:00:49;;;;;;;;;;;;;;;14.47;32.46;101543.78;5036137;28;97409;-81
2021/04/02 12:03:15;;;;;;;;;;;;;;;14.54;32.42;101542.63;5037883;28;99272;-81
2021/04/02 12:05:41;;;;;;;;;;;;;;;14.22;32.45;101526.09;5031933;27;96730;-82
2021/04/02 12:08:07;;;;;;;;;;;;;;;14.46;32.50;101534.94;5041248;28;96829;-82
2021/04/02 12:10:33;;;;;;;;;;;;;;;15.07;31.86;101538.66;5040894;28;97861;-81
2021/04/02 12:12:59;;;;;;;;;;;;;;;14.98;31.08;101532.84;5040253;28;97836;-82
2021/04/02 12:15:25;;;;;;;;;;;;;;;14.81;31.38;101530.88;5042252;27;96939;-82
2021/04/02 12:17:51;;;;;;;;;;;;;;;15.08;31.14;101529.75;5046425;28;96881;-82
2021/04/02 12:20:18;;;;;;;;;;;;;;;15.21;31.19;101519.47;5042682;28;98972;-79
2021/04/02 12:22:44;;;;;;;;;;;;;;;15.62;30.50;101531.00;5042051;28;97735;-81
2021/04/02 12:25:12;;;;;;;;;;;;;;;15.58;29.94;101515.22;5042692;28;96699;-81
2021/04/02 12:27:38;;;;;;;;;;;;;;;16.08;29.44;101503.13;5045997;28;96893;-81
2021/04/02 12:30:05;;;;;;;;;;;;;;;16.31;28.64;101513.63;5034194;28;100560;-80
2021/04/02 12:32:32;;;;;;;;;;;;;;;16.43;28.92;101516.63;5052567;27;100287;-81
2021/04/02 12:34:59;;;;;;;;;;;;;;;15.98;29.42;101500.97;5041261;28;97018;-81
2021/04/02 12:37:25;;;;;;;;;;;;;;;16.02;29.07;101490.09;5041796;27;97442;-82
2021/04/02 12:39:51;;;;;;;;;;;;;;;15.54;29.36;101490.53;5039058;28;97642;-83
2021/04/02 12:42:18;;;;;;;;;;;;;;;15.82;29.16;101484.81;5040092;28;99810;-81
2021/04/02 12:44:43;;;;;;;;;;;;;;;16.33;28.28;101497.53;5038235;28;96669;-81